createdAt,value
2022-12-09T00:00:13.215Z,17.38
2022-12-09T00:01:18.805Z,17.02
2022-12-09T00:02:20.680Z,17.30
2022-12-09T00:03:24.021Z,20.13
2022-12-09T00:04:26.293Z,19.75
2022-12-09T00:05:28.054Z,17.52
2022-12-09T00:06:30.815Z,19.45
2022-12-09T00:07:35.630Z,17.50
2022-12-09T00:08:37.515Z,17.48
2022-12-09T00:09:39.330Z,28.27
2022-12-09T00:10:44.303Z,52.53
2022-12-09T00:11:46.267Z,57.35
2022-12-09T00:12:48.292Z,56.88
2022-12-09T00:13:51.428Z,54.03
2022-12-09T00:14:53.300Z,51.78
2022-12-09T00:15:55.289Z,54.20
2022-12-09T00:16:57.171Z,36.90
2022-12-09T00:17:59.033Z,32.38
2022-12-09T00:19:00.727Z,31.58
2022-12-09T00:20:02.558Z,30.67
2022-12-09T00:21:23.301Z,25.85
2022-12-09T00:22:27.303Z,20.73
2022-12-09T00:23:28.969Z,23.58
2022-12-09T00:24:30.678Z,21.33
2022-12-09T00:25:32.422Z,23.58
2022-12-09T00:26:34.515Z,23.23
2022-12-09T00:27:36.274Z,23.05
2022-12-09T00:28:38.605Z,22.02
2022-12-09T00:29:40.668Z,21.65
2022-12-09T00:30:42.442Z,21.23
2022-12-09T00:31:44.359Z,18.88
2022-12-09T00:32:46.160Z,24.08
2022-12-09T00:33:48.003Z,19.08
2022-12-09T00:34:49.930Z,23.10
2022-12-09T00:35:51.740Z,22.95
2022-12-09T00:36:53.389Z,23.60
2022-12-09T00:37:55.217Z,28.38
2022-12-09T00:38:58.663Z,26.73
2022-12-09T00:40:00.502Z,24.85
2022-12-09T00:41:02.695Z,25.33
2022-12-09T00:42:04.476Z,26.52
2022-12-09T00:43:06.418Z,24.98
2022-12-09T00:44:08.364Z,28.55
2022-12-09T00:45:11.245Z,25.85
2022-12-09T00:46:13.992Z,28.55
2022-12-09T00:47:15.851Z,24.40
2022-12-09T00:48:18.117Z,31.08
2022-12-09T00:49:19.805Z,25.15
2022-12-09T00:50:21.561Z,24.83
2022-12-09T00:51:25.223Z,24.17
2022-12-09T00:52:26.928Z,25.30
2022-12-09T00:53:28.627Z,24.65
2022-12-09T00:54:30.358Z,27.02
2022-12-09T00:55:32.422Z,25.10
2022-12-09T00:56:34.300Z,26.65
2022-12-09T00:57:36.026Z,28.38
2022-12-09T00:58:37.736Z,26.92
2022-12-09T00:59:39.541Z,27.85
2022-12-09T01:00:41.920Z,24.17
2022-12-09T01:01:43.857Z,27.98
2022-12-09T01:02:45.987Z,21.38
2022-12-09T01:03:48.226Z,26.38
2022-12-09T01:04:52.208Z,26.50
2022-12-09T01:05:55.305Z,26.52
2022-12-09T01:06:57.150Z,26.55
2022-12-09T01:07:59.166Z,23.65
2022-12-09T01:09:03.106Z,22.70
2022-12-09T01:10:06.512Z,17.30
2022-12-09T01:11:15.027Z,14.60
2022-12-09T01:12:16.706Z,14.88
2022-12-09T01:13:18.557Z,16.67
2022-12-09T01:14:20.468Z,21.17
2022-12-09T01:15:22.196Z,20.85
2022-12-09T01:16:26.840Z,16.77
2022-12-09T01:17:28.844Z,20.48
2022-12-09T01:18:30.665Z,19.55
2022-12-09T01:19:32.794Z,17.20
2022-12-09T01:20:34.969Z,23.80
2022-12-09T01:21:37.181Z,18.50
2022-12-09T01:22:39.057Z,20.20
2022-12-09T01:23:41.172Z,20.70
2022-12-09T01:24:43.205Z,20.45
2022-12-09T01:25:44.936Z,23.90
2022-12-09T01:26:46.704Z,22.85
2022-12-09T01:27:48.415Z,18.17
2022-12-09T01:28:52.959Z,17.40
2022-12-09T01:29:55.164Z,19.55
2022-12-09T01:30:57.120Z,19.48
2022-12-09T01:31:59.089Z,21.25
2022-12-09T01:33:01.116Z,17.33
2022-12-09T01:34:03.317Z,20.33
2022-12-09T01:35:05.726Z,18.33
2022-12-09T01:36:13.721Z,16.48
2022-12-09T01:37:15.636Z,18.20
2022-12-09T01:38:17.554Z,18.08
2022-12-09T01:39:19.281Z,19.77
2022-12-09T01:40:21.305Z,17.92
2022-12-09T01:41:23.343Z,18.60
2022-12-09T01:42:27.327Z,18.70
2022-12-09T01:43:29.544Z,17.75
2022-12-09T01:44:33.715Z,18.92
2022-12-09T01:45:40.078Z,16.27
2022-12-09T01:46:42.875Z,19.02
2022-12-09T01:47:44.771Z,18.65
2022-12-09T01:48:47.310Z,17.83
2022-12-09T01:49:49.461Z,25.00
2022-12-09T01:50:55.539Z,15.80
2022-12-09T01:52:25.073Z,15.50
2022-12-09T01:53:31.110Z,14.38
2022-12-09T01:54:33.975Z,13.13
2022-12-09T01:55:36.395Z,15.93
2022-12-09T01:56:40.529Z,15.43
2022-12-09T01:57:43.836Z,14.82
2022-12-09T01:58:46.429Z,14.63
2022-12-09T01:59:48.523Z,16.90
2022-12-09T02:00:50.356Z,15.20
2022-12-09T02:01:58.220Z,14.25
2022-12-09T02:03:01.138Z,14.82
2022-12-09T02:04:04.341Z,15.15
2022-12-09T02:05:07.444Z,15.35
2022-12-09T02:06:09.287Z,18.15
2022-12-09T02:07:11.163Z,17.17
2022-12-09T02:08:15.267Z,18.27
2022-12-09T02:09:17.379Z,18.92
2022-12-09T02:10:19.944Z,19.02
2022-12-09T02:11:33.800Z,19.17
2022-12-09T02:12:47.289Z,19.88
2022-12-09T02:14:07.232Z,16.38
2022-12-09T02:15:21.896Z,17.30
2022-12-09T02:16:26.373Z,17.40
2022-12-09T02:17:34.352Z,18.00
2022-12-09T02:18:47.261Z,18.20
2022-12-09T02:20:19.881Z,14.85
2022-12-09T02:21:36.483Z,18.10
2022-12-09T02:22:48.195Z,20.83
2022-12-09T02:24:11.092Z,20.73
2022-12-09T02:25:26.549Z,23.08
2022-12-09T02:26:48.485Z,17.35
2022-12-09T02:27:56.177Z,17.60
2022-12-09T02:29:29.231Z,16.10
2022-12-09T02:30:41.584Z,19.83
2022-12-09T02:32:08.185Z,19.23
2022-12-09T02:33:15.792Z,22.08
2022-12-09T02:34:20.352Z,16.33
2022-12-09T02:35:37.683Z,18.02
2022-12-09T02:36:44.876Z,14.88
2022-12-09T02:37:54.773Z,14.35
2022-12-09T02:38:59.489Z,17.05
2022-12-09T02:40:11.322Z,16.38
2022-12-09T02:41:19.041Z,14.60
2022-12-09T02:42:24.698Z,14.35
2022-12-09T02:43:31.124Z,15.80
2022-12-09T02:44:34.132Z,12.43
2022-12-09T02:45:37.712Z,15.30
2022-12-09T02:46:42.654Z,21.58
2022-12-09T02:47:49.701Z,23.10
2022-12-09T02:48:55.212Z,17.58
2022-12-09T02:50:03.813Z,15.70
2022-12-09T02:51:10.161Z,16.20
2022-12-09T02:52:13.409Z,17.92
2022-12-09T02:53:16.749Z,18.05
2022-12-09T02:54:20.082Z,17.73
2022-12-09T02:55:23.228Z,17.02
2022-12-09T02:56:27.189Z,23.35
2022-12-09T02:57:30.807Z,19.15
2022-12-09T02:58:32.602Z,19.52
2022-12-09T02:59:34.333Z,16.63
2022-12-09T03:00:37.547Z,20.13
2022-12-09T03:02:00.217Z,18.13
2022-12-09T03:03:04.573Z,16.35
2022-12-09T03:04:08.620Z,18.23
2022-12-09T03:05:21.321Z,19.42
2022-12-09T03:06:31.061Z,19.20
2022-12-09T03:07:58.352Z,19.23
2022-12-09T03:09:25.093Z,21.60
2022-12-09T03:10:39.319Z,15.02
2022-12-09T03:11:41.994Z,17.17
2022-12-09T03:12:52.739Z,18.23
2022-12-09T03:14:16.612Z,16.27
2022-12-09T03:15:25.198Z,16.45
2022-12-09T03:16:35.091Z,19.23
2022-12-09T03:17:40.217Z,13.75
2022-12-09T03:18:45.927Z,16.70
2022-12-09T03:19:52.967Z,20.60
2022-12-09T03:20:55.496Z,16.00
2022-12-09T03:22:01.658Z,18.67
2022-12-09T03:23:05.877Z,18.50
2022-12-09T03:24:10.447Z,18.55
2022-12-09T03:25:22.064Z,20.30
2022-12-09T03:26:27.887Z,17.77
2022-12-09T03:27:41.898Z,17.38
2022-12-09T03:28:49.274Z,17.95
2022-12-09T03:29:52.513Z,16.38
2022-12-09T03:30:57.007Z,20.27
2022-12-09T03:31:59.535Z,17.17
2022-12-09T03:33:03.897Z,23.35
2022-12-09T03:34:08.517Z,22.45
2022-12-09T03:35:23.886Z,21.45
2022-12-09T03:36:29.359Z,20.35
2022-12-09T03:37:33.692Z,20.17
2022-12-09T03:38:38.489Z,19.48
2022-12-09T03:39:43.140Z,20.10
2022-12-09T03:40:50.798Z,18.02
2022-12-09T03:41:57.529Z,17.33
2022-12-09T03:43:04.533Z,18.88
2022-12-09T03:44:16.926Z,19.75
2022-12-09T03:45:20.874Z,21.25
2022-12-09T03:46:23.769Z,20.98
2022-12-09T03:47:25.873Z,23.05
2022-12-09T03:48:27.972Z,18.80
2022-12-09T03:49:29.788Z,20.13
2022-12-09T03:50:38.220Z,18.58
2022-12-09T03:51:57.360Z,23.70
2022-12-09T03:53:06.851Z,20.80
2022-12-09T03:54:17.695Z,17.33
2022-12-09T03:55:41.901Z,19.08
2022-12-09T03:56:48.712Z,19.50
2022-12-09T03:57:55.176Z,22.63
2022-12-09T03:58:59.829Z,21.05
2022-12-09T04:00:02.884Z,22.27
2022-12-09T04:01:06.871Z,20.17
2022-12-09T04:02:09.472Z,21.67
2022-12-09T04:03:13.528Z,21.48
2022-12-09T04:04:17.004Z,21.65
2022-12-09T04:05:19.117Z,22.70
2022-12-09T04:06:20.950Z,20.63
2022-12-09T04:07:22.843Z,19.88
2022-12-09T04:08:24.761Z,22.13
2022-12-09T04:09:27.071Z,24.27
2022-12-09T04:10:29.056Z,20.98
2022-12-09T04:11:32.597Z,20.75
2022-12-09T04:12:34.552Z,25.08
2022-12-09T04:13:36.237Z,21.90
2022-12-09T04:14:37.979Z,19.95
2022-12-09T04:15:39.931Z,20.48
2022-12-09T04:16:41.774Z,22.33
2022-12-09T04:17:43.928Z,22.13
2022-12-09T04:18:45.775Z,20.23
2022-12-09T04:19:47.546Z,20.13
2022-12-09T04:20:49.616Z,16.40
2022-12-09T04:21:51.556Z,18.58
2022-12-09T04:22:53.273Z,22.33
2022-12-09T04:23:55.074Z,23.10
2022-12-09T04:24:56.803Z,23.85
2022-12-09T04:25:58.532Z,18.13
2022-12-09T04:27:01.684Z,19.80
2022-12-09T04:28:03.576Z,21.23
2022-12-09T04:29:05.626Z,21.98
2022-12-09T04:30:08.885Z,18.15
2022-12-09T04:31:15.724Z,18.20
2022-12-09T04:32:17.725Z,21.83
2022-12-09T04:33:19.676Z,19.85
2022-12-09T04:34:21.425Z,25.27
2022-12-09T04:35:23.183Z,25.13
2022-12-09T04:36:25.108Z,20.70
2022-12-09T04:37:26.866Z,20.92
2022-12-09T04:38:28.859Z,22.50
2022-12-09T04:39:31.405Z,20.33
2022-12-09T04:40:33.280Z,24.88
2022-12-09T04:41:35.343Z,17.05
2022-12-09T04:42:37.125Z,19.85
2022-12-09T04:43:39.533Z,23.00
2022-12-09T04:44:41.324Z,16.20
2022-12-09T04:45:43.137Z,22.98
2022-12-09T04:46:45.088Z,18.08
2022-12-09T04:47:46.877Z,18.17
2022-12-09T04:48:48.714Z,20.75
2022-12-09T04:49:50.945Z,24.20
2022-12-09T04:50:52.672Z,22.55
2022-12-09T04:51:54.607Z,22.30
2022-12-09T04:52:56.636Z,20.40
2022-12-09T04:53:59.255Z,21.42
2022-12-09T04:55:01.097Z,19.20
2022-12-09T04:56:09.206Z,20.92
2022-12-09T04:57:12.373Z,25.65
2022-12-09T04:58:14.232Z,25.73
2022-12-09T04:59:16.303Z,29.75
2022-12-09T05:00:19.035Z,28.58
2022-12-09T05:01:29.894Z,25.42
2022-12-09T05:02:33.290Z,29.15
2022-12-09T05:03:35.941Z,29.58
2022-12-09T05:04:38.082Z,25.65
2022-12-09T05:05:41.098Z,30.65
2022-12-09T05:06:43.338Z,32.33
2022-12-09T05:07:45.321Z,31.42
2022-12-09T05:08:48.660Z,25.45
2022-12-09T05:09:50.825Z,27.50
2022-12-09T05:10:52.760Z,26.88
2022-12-09T05:11:57.592Z,26.15
2022-12-09T05:12:59.306Z,26.10
2022-12-09T05:14:01.256Z,26.90
2022-12-09T05:15:03.411Z,20.88
2022-12-09T05:16:15.978Z,26.58
2022-12-09T05:17:18.958Z,23.08
2022-12-09T05:18:21.152Z,25.95
2022-12-09T05:19:23.502Z,22.80
2022-12-09T05:20:29.897Z,30.83
2022-12-09T05:21:31.935Z,23.13
2022-12-09T05:22:34.135Z,25.85
2022-12-09T05:23:36.425Z,26.40
2022-12-09T05:24:38.311Z,21.13
2022-12-09T05:25:40.529Z,28.75
2022-12-09T05:26:42.332Z,24.05
2022-12-09T05:27:44.061Z,29.63
2022-12-09T05:28:46.274Z,27.65
2022-12-09T05:29:48.792Z,26.73
2022-12-09T05:30:51.020Z,27.10
2022-12-09T05:31:53.221Z,24.13
2022-12-09T05:32:55.328Z,23.75
2022-12-09T05:33:58.544Z,22.38
2022-12-09T05:35:00.404Z,31.80
2022-12-09T05:36:02.578Z,27.50
2022-12-09T05:37:04.452Z,24.48
2022-12-09T05:38:06.196Z,25.77
2022-12-09T05:39:07.890Z,22.67
2022-12-09T05:40:10.230Z,25.67
2022-12-09T05:41:12.812Z,24.25
2022-12-09T05:42:14.898Z,25.55
2022-12-09T05:43:17.244Z,28.38
2022-12-09T05:44:19.427Z,30.50
2022-12-09T05:45:21.365Z,25.08
2022-12-09T05:46:23.441Z,29.90
2022-12-09T05:47:25.567Z,30.15
2022-12-09T05:48:27.896Z,27.88
2022-12-09T05:49:30.202Z,32.05
2022-12-09T05:50:32.387Z,27.15
2022-12-09T05:51:34.588Z,27.92
2022-12-09T05:52:37.846Z,30.50
2022-12-09T05:53:39.735Z,26.55
2022-12-09T05:54:44.748Z,26.58
2022-12-09T05:55:47.390Z,28.60
2022-12-09T05:56:49.713Z,31.73
2022-12-09T05:57:51.771Z,26.70
2022-12-09T05:58:54.782Z,28.33
2022-12-09T05:59:56.836Z,27.08
2022-12-09T06:01:06.329Z,25.95
2022-12-09T06:02:10.181Z,26.45
2022-12-09T06:03:13.556Z,35.33
2022-12-09T06:04:16.246Z,24.33
2022-12-09T06:05:18.716Z,27.98
2022-12-09T06:06:23.832Z,27.88
2022-12-09T06:07:26.085Z,28.45
2022-12-09T06:08:28.284Z,30.48
2022-12-09T06:09:30.698Z,28.23
2022-12-09T06:10:32.712Z,27.83
2022-12-09T06:11:34.856Z,31.38
2022-12-09T06:12:37.003Z,30.95
2022-12-09T06:13:38.868Z,30.95
2022-12-09T06:14:41.016Z,39.10
2022-12-09T06:15:43.079Z,40.33
2022-12-09T06:16:45.397Z,38.38
2022-12-09T06:17:47.472Z,36.47
2022-12-09T06:18:50.470Z,36.70
2022-12-09T06:19:52.370Z,37.35
2022-12-09T06:20:54.636Z,40.15
2022-12-09T06:21:56.605Z,43.08
2022-12-09T06:22:58.428Z,39.40
2022-12-09T06:24:00.676Z,43.00
2022-12-09T06:25:02.549Z,35.10
2022-12-09T06:26:05.089Z,35.55
2022-12-09T06:27:07.569Z,34.70
2022-12-09T06:28:09.385Z,34.63
2022-12-09T06:29:11.194Z,28.80
2022-12-09T06:30:13.214Z,29.63
2022-12-09T06:31:15.913Z,29.05
2022-12-09T06:32:18.241Z,29.38
2022-12-09T06:33:52.611Z,32.70
2022-12-09T06:34:42.386Z,26.40
2022-12-09T06:35:44.682Z,26.35
2022-12-09T06:36:46.834Z,31.42
2022-12-09T06:37:52.884Z,25.67
2022-12-09T06:38:56.663Z,30.17
2022-12-09T06:39:58.873Z,25.75
2022-12-09T06:41:01.099Z,30.75
2022-12-09T06:42:04.498Z,26.70
2022-12-09T06:43:06.239Z,33.88
2022-12-09T06:44:08.548Z,26.67
2022-12-09T06:45:11.322Z,27.63
2022-12-09T06:46:20.233Z,36.55
2022-12-09T06:47:22.256Z,30.13
2022-12-09T06:48:24.480Z,29.55
2022-12-09T06:49:26.985Z,31.05
2022-12-09T06:50:28.881Z,34.67
2022-12-09T06:51:31.375Z,35.03
2022-12-09T06:52:33.591Z,36.10
2022-12-09T06:53:35.409Z,35.67
2022-12-09T06:54:37.191Z,31.77
2022-12-09T06:55:39.092Z,29.77
2022-12-09T06:56:41.212Z,28.55
2022-12-09T06:57:43.207Z,27.15
2022-12-09T06:58:46.608Z,24.40
2022-12-09T06:59:48.941Z,24.55
2022-12-09T07:00:51.354Z,27.88
2022-12-09T07:01:53.638Z,22.48
2022-12-09T07:02:55.769Z,27.70
2022-12-09T07:03:58.328Z,23.60
2022-12-09T07:05:00.941Z,25.27
2022-12-09T07:06:03.604Z,26.20
2022-12-09T07:07:05.691Z,23.55
2022-12-09T07:08:07.785Z,22.67
2022-12-09T07:09:15.737Z,22.35
2022-12-09T07:10:18.355Z,25.00
2022-12-09T07:11:20.254Z,24.90
2022-12-09T07:12:22.549Z,24.05
2022-12-09T07:13:24.716Z,20.40
2022-12-09T07:14:26.862Z,24.30
2022-12-09T07:15:28.708Z,22.45
2022-12-09T07:16:31.262Z,22.13
2022-12-09T07:17:33.314Z,22.60
2022-12-09T07:18:35.322Z,21.52
2022-12-09T07:19:37.234Z,22.25
2022-12-09T07:20:39.086Z,20.08
2022-12-09T07:21:40.744Z,21.70
2022-12-09T07:22:42.537Z,22.02
2022-12-09T07:23:45.378Z,18.75
2022-12-09T07:24:47.516Z,18.80
2022-12-09T07:25:59.247Z,19.10
2022-12-09T07:27:07.514Z,18.42
2022-12-09T07:28:10.952Z,16.27
2022-12-09T07:29:12.868Z,21.38
2022-12-09T07:30:14.917Z,15.13
2022-12-09T07:31:22.767Z,19.15
2022-12-09T07:32:25.060Z,17.33
2022-12-09T07:33:27.901Z,19.13
2022-12-09T07:34:30.060Z,20.48
2022-12-09T07:35:32.301Z,37.28
2022-12-09T07:36:35.865Z,21.80
2022-12-09T07:37:38.038Z,22.65
2022-12-09T07:38:39.854Z,19.00
2022-12-09T07:39:41.811Z,20.75
2022-12-09T07:40:43.749Z,22.30
2022-12-09T07:41:46.109Z,22.02
2022-12-09T07:42:48.255Z,23.80
2022-12-09T07:43:50.425Z,23.13
2022-12-09T07:44:52.337Z,20.40
2022-12-09T07:45:54.362Z,22.75
2022-12-09T07:46:57.497Z,25.35
2022-12-09T07:48:00.054Z,23.13
2022-12-09T07:49:04.013Z,17.42
2022-12-09T07:50:07.632Z,24.20
2022-12-09T07:51:09.703Z,23.42
2022-12-09T07:52:12.668Z,22.10
2022-12-09T07:53:14.825Z,23.27
2022-12-09T07:54:18.387Z,21.70
2022-12-09T07:55:20.400Z,17.63
2022-12-09T07:56:23.221Z,26.20
2022-12-09T07:57:25.078Z,16.52
2022-12-09T07:58:26.985Z,21.20
2022-12-09T07:59:29.016Z,17.40
2022-12-09T08:00:30.938Z,19.70
2022-12-09T08:01:33.104Z,21.98
2022-12-09T08:02:35.369Z,18.88
2022-12-09T08:03:37.459Z,19.85
2022-12-09T08:04:39.507Z,23.20
2022-12-09T08:05:48.860Z,17.58
2022-12-09T08:06:51.126Z,19.50
2022-12-09T08:07:53.474Z,21.05
2022-12-09T08:08:59.659Z,19.02
2022-12-09T08:10:02.048Z,21.50
2022-12-09T08:11:28.463Z,21.60
2022-12-09T08:12:30.753Z,20.77
2022-12-09T08:13:32.892Z,19.95
2022-12-09T08:14:36.705Z,17.30
2022-12-09T08:15:38.829Z,21.50
2022-12-09T08:16:42.359Z,16.52
2022-12-09T08:17:46.386Z,18.25
2022-12-09T08:18:49.011Z,18.75
2022-12-09T08:19:52.297Z,20.05
2022-12-09T08:20:54.129Z,23.55
2022-12-09T08:21:56.337Z,19.35
2022-12-09T08:22:58.552Z,14.95
2022-12-09T08:24:03.216Z,19.63
2022-12-09T08:25:06.269Z,18.35
2022-12-09T08:26:10.472Z,18.75
2022-12-09T08:27:12.671Z,18.15
2022-12-09T08:28:14.509Z,17.13
2022-12-09T08:29:16.763Z,16.52
2022-12-09T08:30:18.906Z,15.45
2022-12-09T08:31:23.990Z,17.10
2022-12-09T08:32:26.468Z,18.27
2022-12-09T08:33:28.551Z,18.58
2022-12-09T08:34:30.801Z,21.38
2022-12-09T08:35:32.666Z,25.08
2022-12-09T08:36:34.545Z,19.33
2022-12-09T08:37:36.463Z,19.60
2022-12-09T08:38:38.783Z,20.08
2022-12-09T08:39:40.664Z,20.45
2022-12-09T08:40:43.017Z,19.25
2022-12-09T08:41:45.483Z,20.08
2022-12-09T08:42:47.742Z,19.00
2022-12-09T08:43:49.977Z,16.55
2022-12-09T08:44:55.836Z,19.17
2022-12-09T08:46:01.965Z,17.25
2022-12-09T08:47:04.410Z,20.30
2022-12-09T08:48:07.397Z,20.13
2022-12-09T08:49:10.272Z,21.52
2022-12-09T08:50:12.849Z,16.58
2022-12-09T08:51:15.225Z,20.45
2022-12-09T08:52:17.061Z,20.08
2022-12-09T08:53:19.211Z,21.00
2022-12-09T08:54:21.613Z,22.48
2022-12-09T08:55:23.975Z,22.30
2022-12-09T08:56:27.016Z,21.17
2022-12-09T08:57:28.933Z,23.92
2022-12-09T08:58:31.431Z,21.52
2022-12-09T08:59:33.473Z,18.88
2022-12-09T09:00:35.707Z,21.70
2022-12-09T09:01:37.582Z,19.33
2022-12-09T09:02:40.322Z,21.08
2022-12-09T09:03:42.831Z,25.30
2022-12-09T09:04:45.162Z,20.73
2022-12-09T09:05:47.588Z,21.33
2022-12-09T09:06:51.533Z,21.50
2022-12-09T09:07:54.052Z,20.77
2022-12-09T09:08:58.305Z,30.15
2022-12-09T09:10:01.492Z,19.70
2022-12-09T09:11:10.435Z,24.77
2022-12-09T09:12:12.763Z,20.83
2022-12-09T09:13:14.944Z,22.63
2022-12-09T09:14:17.443Z,21.88
2022-12-09T09:15:19.446Z,23.35
2022-12-09T09:16:23.891Z,19.25
2022-12-09T09:17:25.917Z,19.92
2022-12-09T09:18:28.496Z,18.10
2022-12-09T09:19:31.794Z,23.58
2022-12-09T09:20:33.781Z,26.40
2022-12-09T09:21:36.372Z,17.55
2022-12-09T09:22:39.019Z,28.35
2022-12-09T09:23:42.093Z,22.90
2022-12-09T09:24:44.317Z,24.52
2022-12-09T09:25:46.341Z,27.45
2022-12-09T09:26:50.094Z,25.23
2022-12-09T09:27:52.325Z,23.60
2022-12-09T09:28:55.764Z,19.08
2022-12-09T09:29:57.667Z,22.08
2022-12-09T09:31:01.615Z,22.13
2022-12-09T09:32:03.954Z,19.70
2022-12-09T09:33:06.028Z,24.95
2022-12-09T09:34:08.373Z,20.98
2022-12-09T09:35:10.243Z,22.58
2022-12-09T09:36:15.630Z,20.58
2022-12-09T09:37:17.709Z,21.73
2022-12-09T09:38:19.523Z,17.33
2022-12-09T09:39:22.295Z,23.45
2022-12-09T09:40:24.229Z,23.85
2022-12-09T09:41:52.879Z,26.58
2022-12-09T09:42:57.503Z,19.80
2022-12-09T09:44:00.184Z,21.73
2022-12-09T09:45:08.130Z,23.40
2022-12-09T09:46:19.084Z,25.10
2022-12-09T09:47:24.261Z,28.73
2022-12-09T09:48:31.815Z,24.20
2022-12-09T09:49:46.208Z,27.00
2022-12-09T09:51:01.485Z,23.08
2022-12-09T09:52:08.844Z,23.65
2022-12-09T09:53:18.222Z,22.45
2022-12-09T09:54:20.178Z,21.17
2022-12-09T09:55:50.423Z,20.35
2022-12-09T09:57:22.066Z,22.17
2022-12-09T09:58:51.894Z,27.35
2022-12-09T10:00:05.604Z,21.58
2022-12-09T10:01:18.073Z,26.20
2022-12-09T10:02:51.327Z,21.23
2022-12-09T10:04:18.230Z,23.23
2022-12-09T10:05:30.754Z,18.98
2022-12-09T10:06:39.244Z,25.95
2022-12-09T10:07:44.152Z,21.35
2022-12-09T10:09:16.080Z,21.08
2022-12-09T10:10:33.422Z,21.48
2022-12-09T10:11:54.335Z,23.33
2022-12-09T10:13:11.035Z,22.63
2022-12-09T10:14:39.957Z,18.58
2022-12-09T10:16:01.086Z,21.23
2022-12-09T10:17:29.059Z,21.88
2022-12-09T10:19:09.109Z,26.42
2022-12-09T10:20:11.948Z,23.67
2022-12-09T10:21:19.564Z,23.88
2022-12-09T10:22:26.590Z,23.05
2022-12-09T10:23:32.437Z,21.50
2022-12-09T10:24:40.075Z,21.70
2022-12-09T10:25:49.878Z,23.15
2022-12-09T10:27:02.218Z,22.90
2022-12-09T10:28:26.129Z,25.33
2022-12-09T10:29:40.349Z,24.02
2022-12-09T10:30:44.530Z,25.65
2022-12-09T10:31:47.446Z,23.98
2022-12-09T10:32:50.219Z,23.20
2022-12-09T10:33:52.367Z,27.38
2022-12-09T10:34:54.365Z,28.48
2022-12-09T10:35:57.565Z,24.55
2022-12-09T10:36:59.757Z,28.70
2022-12-09T10:38:10.539Z,22.73
2022-12-09T10:40:36.191Z,25.02
2022-12-09T10:42:16.061Z,21.10
2022-12-09T10:43:44.469Z,25.23
2022-12-09T10:44:49.136Z,19.75
2022-12-09T10:47:29.478Z,26.48
2022-12-09T10:48:33.267Z,28.35
2022-12-09T10:49:36.212Z,22.35
2022-12-09T10:50:39.031Z,21.83
2022-12-09T10:51:49.530Z,23.15
2022-12-09T10:52:52.074Z,23.67
2022-12-09T10:53:56.878Z,39.13
2022-12-09T10:54:58.842Z,31.23
2022-12-09T10:56:02.766Z,24.65
2022-12-09T10:57:23.495Z,34.97
2022-12-09T10:58:28.352Z,34.05
2022-12-09T10:59:31.449Z,29.73
2022-12-09T11:00:35.043Z,36.38
2022-12-09T11:01:53.830Z,30.73
2022-12-09T11:02:56.812Z,30.65
2022-12-09T11:03:58.904Z,33.47
2022-12-09T11:05:28.803Z,34.75
2022-12-09T11:06:40.067Z,36.85
2022-12-09T11:07:48.415Z,35.28
2022-12-09T11:08:53.774Z,46.13
2022-12-09T11:09:56.463Z,39.80
2022-12-09T11:10:58.622Z,45.38
2022-12-09T11:12:02.280Z,44.50
2022-12-09T11:13:09.021Z,38.55
2022-12-09T11:14:37.477Z,43.40
2022-12-09T11:15:46.033Z,34.30
2022-12-09T11:16:49.070Z,41.08
2022-12-09T11:18:14.329Z,35.35
2022-12-09T11:19:16.838Z,59.40
2022-12-09T11:20:24.437Z,41.80
2022-12-09T11:21:33.425Z,42.22
2022-12-09T11:22:44.292Z,35.58
2022-12-09T11:24:00.712Z,46.65
2022-12-09T11:25:27.316Z,45.60
2022-12-09T11:26:39.338Z,41.55
2022-12-09T11:27:52.244Z,46.72
2022-12-09T11:29:16.411Z,43.72
2022-12-09T11:30:32.674Z,50.28
2022-12-09T11:31:40.057Z,46.38
2022-12-09T11:33:02.401Z,52.58
2022-12-09T11:34:15.847Z,53.95
2022-12-09T11:35:31.324Z,58.00
2022-12-09T11:36:37.274Z,66.15
2022-12-09T11:37:42.375Z,61.72
2022-12-09T11:38:46.558Z,57.67
2022-12-09T11:39:52.756Z,62.35
2022-12-09T11:41:09.483Z,67.05
2022-12-09T11:42:22.577Z,53.38
2022-12-09T11:43:51.273Z,69.57
2022-12-09T11:45:25.409Z,64.97
2022-12-09T11:46:30.935Z,64.65
2022-12-09T11:48:22.653Z,63.80
2022-12-09T11:49:15.740Z,58.80
2022-12-09T11:50:19.824Z,52.33
2022-12-09T11:51:23.164Z,54.65
2022-12-09T11:52:29.070Z,58.50
2022-12-09T11:53:40.038Z,66.93
2022-12-09T11:54:45.493Z,64.65
2022-12-09T11:55:51.394Z,62.60
2022-12-09T11:56:54.162Z,63.22
2022-12-09T11:58:01.136Z,56.25
2022-12-09T11:59:20.644Z,61.13
2022-12-09T12:00:29.157Z,66.95
2022-12-09T12:01:45.828Z,62.90
2022-12-09T12:03:34.019Z,93.88
2022-12-09T12:04:38.640Z,63.80
2022-12-09T12:05:45.786Z,68.50
2022-12-09T12:06:52.237Z,66.93
2022-12-09T12:08:05.808Z,67.40
2022-12-09T12:09:22.489Z,68.18
2022-12-09T12:10:29.042Z,64.80
2022-12-09T12:11:44.042Z,62.38
2022-12-09T12:13:04.449Z,65.32
2022-12-09T12:14:28.543Z,63.30
2022-12-09T12:15:39.638Z,52.50
2022-12-09T12:17:08.969Z,54.33
2022-12-09T12:18:18.631Z,56.25
2022-12-09T12:19:30.429Z,61.63
2022-12-09T12:20:59.884Z,52.40
2022-12-09T12:22:35.454Z,58.47
2022-12-09T12:23:55.616Z,60.25
2022-12-09T12:25:20.801Z,58.55
2022-12-09T12:26:26.607Z,58.30
2022-12-09T12:27:40.373Z,60.90
2022-12-09T12:28:57.247Z,72.82
2022-12-09T12:30:59.231Z,58.83
2022-12-09T12:32:03.652Z,63.90
2022-12-09T12:34:56.756Z,57.53
2022-12-09T12:36:14.843Z,66.43
2022-12-09T12:37:52.891Z,56.30
2022-12-09T12:39:00.672Z,60.55
2022-12-09T12:40:11.503Z,59.63
2022-12-09T12:42:04.881Z,55.50
2022-12-09T12:43:55.729Z,56.03
2022-12-09T12:45:42.719Z,69.55
2022-12-09T12:47:12.036Z,85.25
2022-12-09T12:48:26.951Z,79.72
2022-12-09T12:49:59.447Z,75.03
2022-12-09T12:51:13.323Z,67.15
2022-12-09T12:54:19.067Z,63.13
2022-12-09T12:55:44.364Z,64.18
2022-12-09T12:56:46.008Z,59.55
2022-12-09T12:58:19.580Z,74.82
2022-12-09T12:59:33.207Z,68.28
2022-12-09T13:01:03.575Z,61.83
2022-12-09T13:02:25.527Z,63.88
2022-12-09T13:03:46.776Z,59.53
2022-12-09T13:05:03.547Z,59.25
2022-12-09T13:06:10.013Z,70.65
2022-12-09T13:07:30.577Z,72.10
2022-12-09T13:08:44.391Z,59.45
2022-12-09T13:09:49.826Z,62.25
2022-12-09T13:10:57.653Z,65.95
2022-12-09T13:12:13.716Z,77.35
2022-12-09T13:13:28.494Z,57.90
2022-12-09T13:14:51.612Z,67.63
2022-12-09T13:15:59.135Z,58.67
2022-12-09T13:17:04.014Z,64.50
2022-12-09T13:18:17.074Z,59.92
2022-12-09T13:19:40.220Z,61.45
2022-12-09T13:20:47.001Z,60.30
2022-12-09T13:21:49.363Z,67.10
2022-12-09T13:23:06.119Z,67.13
2022-12-09T13:24:18.026Z,56.95
2022-12-09T13:25:37.335Z,61.83
2022-12-09T13:26:46.945Z,78.80
2022-12-09T13:28:13.745Z,61.15
2022-12-09T13:29:22.101Z,72.35
2022-12-09T13:30:31.244Z,70.25
2022-12-09T13:31:36.711Z,70.82
2022-12-09T13:33:12.906Z,72.80
2022-12-09T13:34:17.139Z,65.00
2022-12-09T13:35:40.131Z,75.70
2022-12-09T13:36:42.713Z,72.10
2022-12-09T13:37:44.418Z,77.50
2022-12-09T13:38:46.166Z,75.35
2022-12-09T13:39:50.658Z,79.15
2022-12-09T13:40:52.683Z,81.00
2022-12-09T13:42:13.163Z,148.23
2022-12-09T13:43:30.526Z,147.82
2022-12-09T13:44:37.227Z,74.00
2022-12-09T13:45:44.809Z,67.43
2022-12-09T13:46:46.845Z,76.05
2022-12-09T13:47:48.613Z,70.80
2022-12-09T13:48:51.834Z,78.18
2022-12-09T13:50:21.426Z,72.32
2022-12-09T13:51:23.923Z,74.35
2022-12-09T13:52:45.024Z,83.03
2022-12-09T13:53:50.856Z,68.25
2022-12-09T13:54:52.691Z,85.97
2022-12-09T13:55:58.893Z,87.13
2022-12-09T13:57:15.780Z,78.80
2022-12-09T13:58:28.254Z,80.57
2022-12-09T13:59:54.348Z,85.63
2022-12-09T14:01:11.852Z,86.30
2022-12-09T14:02:52.364Z,92.05
2022-12-09T14:04:15.832Z,103.45
2022-12-09T14:05:26.504Z,98.57
2022-12-09T14:06:39.607Z,91.43
2022-12-09T14:08:00.209Z,80.45
2022-12-09T14:09:15.701Z,87.03
2022-12-09T14:10:39.248Z,99.40
2022-12-09T14:12:03.420Z,94.47
2022-12-09T14:13:23.287Z,91.25
2022-12-09T14:14:27.827Z,98.70
2022-12-09T14:15:29.497Z,100.63
2022-12-09T14:16:31.167Z,96.90
2022-12-09T14:17:35.665Z,95.65
2022-12-09T14:18:39.906Z,108.00
2022-12-09T14:19:50.712Z,106.93
2022-12-09T14:21:23.901Z,97.17
2022-12-09T14:22:25.792Z,105.82
2022-12-09T14:23:27.481Z,98.65
2022-12-09T14:24:32.498Z,93.20
2022-12-09T14:25:34.116Z,97.90
2022-12-09T14:26:38.836Z,94.05
2022-12-09T14:28:12.197Z,100.05